sensor_id;sensor_type;location;lat;lon;timestamp;P1;durP1;ratioP1;P2;durP2;ratioP2
65581;SDS011;52231;40.090;18.348;2022-07-23T00:00:49;14.98;;;10.27;;
65581;SDS011;52231;40.090;18.348;2022-07-23T00:03:18;14.43;;;9.43;;
65581;SDS011;52231;40.090;18.348;2022-07-23T00:05:46;18.70;;;10.30;;
65581;SDS011;52231;40.090;18.348;2022-07-23T00:08:14;17.25;;;10.38;;
65581;SDS011;52231;40.090;18.348;2022-07-23T00:13:11;18.77;;;10.07;;
65581;SDS011;52231;40.090;18.348;2022-07-23T00:15:39;16.77;;;9.90;;
65581;SDS011;52231;40.090;18.348;2022-07-23T00:18:07;18.20;;;10.00;;
65581;SDS011;52231;40.090;18.348;2022-07-23T00:20:35;15.50;;;9.60;;
65581;SDS011;52231;40.090;18.348;2022-07-23T00:23:04;16.60;;;10.15;;
65581;SDS011;52231;40.090;18.348;2022-07-23T00:25:32;15.40;;;10.02;;
65581;SDS011;52231;40.090;18.348;2022-07-23T00:28:01;16.83;;;10.07;;
65581;SDS011;52231;40.090;18.348;2022-07-23T00:30:30;15.35;;;9.98;;
65581;SDS011;52231;40.090;18.348;2022-07-23T00:33:17;17.00;;;10.18;;
65581;SDS011;52231;40.090;18.348;2022-07-23T00:38:13;15.98;;;9.40;;
65581;SDS011;52231;40.090;18.348;2022-07-23T00:40:41;16.67;;;9.88;;
65581;SDS011;52231;40.090;18.348;2022-07-23T00:43:10;15.68;;;9.90;;
65581;SDS011;52231;40.090;18.348;2022-07-23T00:45:39;17.65;;;10.50;;
65581;SDS011;52231;40.090;18.348;2022-07-23T00:48:08;15.98;;;9.10;;
65581;SDS011;52231;40.090;18.348;2022-07-23T00:53:05;15.73;;;9.60;;
65581;SDS011;52231;40.090;18.348;2022-07-23T00:55:33;18.38;;;10.98;;
65581;SDS011;52231;40.090;18.348;2022-07-23T00:58:01;15.20;;;10.23;;
65581;SDS011;52231;40.090;18.348;2022-07-23T01:00:30;15.80;;;9.10;;
65581;SDS011;52231;40.090;18.348;2022-07-23T01:02:58;15.50;;;9.43;;
65581;SDS011;52231;40.090;18.348;2022-07-23T01:05:27;16.50;;;10.32;;
65581;SDS011;52231;40.090;18.348;2022-07-23T01:07:55;16.92;;;9.68;;
65581;SDS011;52231;40.090;18.348;2022-07-23T01:10:24;15.65;;;10.38;;
65581;SDS011;52231;40.090;18.348;2022-07-23T01:13:05;17.00;;;10.27;;
65581;SDS011;52231;40.090;18.348;2022-07-23T01:15:36;19.15;;;10.60;;
65581;SDS011;52231;40.090;18.348;2022-07-23T01:18:06;18.88;;;10.02;;
65581;SDS011;52231;40.090;18.348;2022-07-23T01:20:37;16.63;;;10.68;;
65581;SDS011;52231;40.090;18.348;2022-07-23T01:23:07;17.40;;;10.77;;
65581;SDS011;52231;40.090;18.348;2022-07-23T01:25:40;15.88;;;9.90;;
65581;SDS011;52231;40.090;18.348;2022-07-23T01:28:16;16.65;;;9.75;;
65581;SDS011;52231;40.090;18.348;2022-07-23T01:30:47;17.10;;;10.13;;
65581;SDS011;52231;40.090;18.348;2022-07-23T01:33:16;17.58;;;10.50;;
65581;SDS011;52231;40.090;18.348;2022-07-23T01:35:45;15.43;;;9.98;;
65581;SDS011;52231;40.090;18.348;2022-07-23T01:38:23;16.25;;;9.68;;
65581;SDS011;52231;40.090;18.348;2022-07-23T01:40:52;15.75;;;9.88;;
65581;SDS011;52231;40.090;18.348;2022-07-23T01:43:22;17.38;;;10.02;;
65581;SDS011;52231;40.090;18.348;2022-07-23T01:45:51;15.88;;;9.60;;
65581;SDS011;52231;40.090;18.348;2022-07-23T01:48:27;13.20;;;9.25;;
65581;SDS011;52231;40.090;18.348;2022-07-23T01:51:27;16.13;;;10.20;;
65581;SDS011;52231;40.090;18.348;2022-07-23T01:54:07;17.20;;;10.90;;
65581;SDS011;52231;40.090;18.348;2022-07-23T01:56:35;15.75;;;9.27;;
65581;SDS011;52231;40.090;18.348;2022-07-23T01:59:03;20.20;;;9.45;;
65581;SDS011;52231;40.090;18.348;2022-07-23T02:04:03;14.75;;;9.40;;
65581;SDS011;52231;40.090;18.348;2022-07-23T02:06:31;15.68;;;10.52;;
65581;SDS011;52231;40.090;18.348;2022-07-23T02:09:00;14.57;;;10.30;;
65581;SDS011;52231;40.090;18.348;2022-07-23T02:11:28;16.80;;;9.30;;
65581;SDS011;52231;40.090;18.348;2022-07-23T02:13:56;14.35;;;9.35;;
65581;SDS011;52231;40.090;18.348;2022-07-23T02:18:53;16.73;;;9.60;;
65581;SDS011;52231;40.090;18.348;2022-07-23T02:23:49;14.18;;;9.50;;
65581;SDS011;52231;40.090;18.348;2022-07-23T02:26:20;16.75;;;10.18;;
65581;SDS011;52231;40.090;18.348;2022-07-23T02:28:52;16.90;;;10.05;;
65581;SDS011;52231;40.090;18.348;2022-07-23T02:31:21;15.73;;;10.05;;
65581;SDS011;52231;40.090;18.348;2022-07-23T02:36:18;13.85;;;8.85;;
65581;SDS011;52231;40.090;18.348;2022-07-23T02:38:46;17.60;;;10.38;;
65581;SDS011;52231;40.090;18.348;2022-07-23T02:41:16;14.80;;;9.43;;
65581;SDS011;52231;40.090;18.348;2022-07-23T02:43:44;15.65;;;9.82;;
65581;SDS011;52231;40.090;18.348;2022-07-23T02:46:14;16.23;;;10.75;;
65581;SDS011;52231;40.090;18.348;2022-07-23T02:48:43;15.57;;;10.13;;
65581;SDS011;52231;40.090;18.348;2022-07-23T02:53:43;18.25;;;10.18;;
65581;SDS011;52231;40.090;18.348;2022-07-23T02:56:11;17.60;;;10.13;;
65581;SDS011;52231;40.090;18.348;2022-07-23T03:01:36;15.43;;;9.50;;
65581;SDS011;52231;40.090;18.348;2022-07-23T03:04:09;15.57;;;9.63;;
65581;SDS011;52231;40.090;18.348;2022-07-23T03:06:38;14.13;;;9.35;;
65581;SDS011;52231;40.090;18.348;2022-07-23T03:09:06;13.95;;;8.98;;
65581;SDS011;52231;40.090;18.348;2022-07-23T03:11:34;17.27;;;10.10;;
65581;SDS011;52231;40.090;18.348;2022-07-23T03:14:03;14.07;;;9.95;;
65581;SDS011;52231;40.090;18.348;2022-07-23T03:16:31;16.42;;;9.88;;
65581;SDS011;52231;40.090;18.348;2022-07-23T03:18:59;17.02;;;10.45;;
65581;SDS011;52231;40.090;18.348;2022-07-23T03:23:55;17.77;;;10.30;;
65581;SDS011;52231;40.090;18.348;2022-07-23T03:28:52;17.58;;;10.20;;
65581;SDS011;52231;40.090;18.348;2022-07-23T03:31:20;16.33;;;10.27;;
65581;SDS011;52231;40.090;18.348;2022-07-23T03:36:17;15.60;;;9.77;;
65581;SDS011;52231;40.090;18.348;2022-07-23T03:38:46;17.77;;;10.98;;
65581;SDS011;52231;40.090;18.348;2022-07-23T03:41:14;16.73;;;9.93;;
65581;SDS011;52231;40.090;18.348;2022-07-23T03:43:43;17.85;;;11.63;;
65581;SDS011;52231;40.090;18.348;2022-07-23T03:48:40;18.45;;;10.32;;
65581;SDS011;52231;40.090;18.348;2022-07-23T03:51:08;21.70;;;12.63;;
65581;SDS011;52231;40.090;18.348;2022-07-23T03:53:37;24.55;;;13.48;;
65581;SDS011;52231;40.090;18.348;2022-07-23T03:58:33;23.88;;;12.13;;
65581;SDS011;52231;40.090;18.348;2022-07-23T04:01:02;23.50;;;13.55;;
65581;SDS011;52231;40.090;18.348;2022-07-23T04:05:58;21.42;;;12.75;;
65581;SDS011;52231;40.090;18.348;2022-07-23T04:08:29;20.38;;;12.27;;
65581;SDS011;52231;40.090;18.348;2022-07-23T04:11:00;22.15;;;12.18;;
65581;SDS011;52231;40.090;18.348;2022-07-23T04:13:28;18.75;;;11.60;;
65581;SDS011;52231;40.090;18.348;2022-07-23T04:18:25;19.42;;;11.80;;
65581;SDS011;52231;40.090;18.348;2022-07-23T04:21:06;20.73;;;11.27;;
65581;SDS011;52231;40.090;18.348;2022-07-23T04:23:36;22.80;;;11.07;;
65581;SDS011;52231;40.090;18.348;2022-07-23T04:26:05;24.25;;;12.95;;
65581;SDS011;52231;40.090;18.348;2022-07-23T04:28:34;25.33;;;13.73;;
65581;SDS011;52231;40.090;18.348;2022-07-23T04:31:04;144.88;;;48.45;;
65581;SDS011;52231;40.090;18.348;2022-07-23T04:33:34;642.15;;;256.67;;
65581;SDS011;52231;40.090;18.348;2022-07-23T04:36:05;429.73;;;140.82;;
65581;SDS011;52231;40.090;18.348;2022-07-23T04:38:34;237.38;;;71.70;;
65581;SDS011;52231;40.090;18.348;2022-07-23T04:41:03;50.85;;;20.30;;
65581;SDS011;52231;40.090;18.348;2022-07-23T04:43:32;24.40;;;12.63;;
65581;SDS011;52231;40.090;18.348;2022-07-23T04:46:00;22.95;;;10.90;;
65581;SDS011;52231;40.090;18.348;2022-07-23T04:48:38;23.60;;;11.55;;
65581;SDS011;52231;40.090;18.348;2022-07-23T04:51:09;22.70;;;11.00;;
65581;SDS011;52231;40.090;18.348;2022-07-23T04:53:37;22.25;;;10.98;;
65581;SDS011;52231;40.090;18.348;2022-07-23T04:56:06;17.75;;;9.85;;
65581;SDS011;52231;40.090;18.348;2022-07-23T04:58:34;18.50;;;10.15;;
65581;SDS011;52231;40.090;18.348;2022-07-23T05:01:03;18.45;;;9.73;;
65581;SDS011;52231;40.090;18.348;2022-07-23T05:03:34;19.58;;;10.43;;
65581;SDS011;52231;40.090;18.348;2022-07-23T05:06:02;18.25;;;9.90;;
65581;SDS011;52231;40.090;18.348;2022-07-23T05:08:31;16.15;;;8.27;;
65581;SDS011;52231;40.090;18.348;2022-07-23T05:11:00;16.10;;;8.23;;
65581;SDS011;52231;40.090;18.348;2022-07-23T05:13:29;12.95;;;8.00;;
65581;SDS011;52231;40.090;18.348;2022-07-23T05:15:58;12.73;;;7.07;;
65581;SDS011;52231;40.090;18.348;2022-07-23T05:18:26;13.43;;;7.97;;
65581;SDS011;52231;40.090;18.348;2022-07-23T05:20:55;14.85;;;8.55;;
65581;SDS011;52231;40.090;18.348;2022-07-23T05:23:23;15.10;;;8.50;;
65581;SDS011;52231;40.090;18.348;2022-07-23T05:25:52;14.88;;;7.63;;
65581;SDS011;52231;40.090;18.348;2022-07-23T05:28:21;15.80;;;7.07;;
65581;SDS011;52231;40.090;18.348;2022-07-23T05:30:52;14.90;;;7.43;;
65581;SDS011;52231;40.090;18.348;2022-07-23T05:33:21;16.33;;;7.57;;
65581;SDS011;52231;40.090;18.348;2022-07-23T05:35:50;13.85;;;7.10;;
65581;SDS011;52231;40.090;18.348;2022-07-23T05:38:37;13.88;;;6.97;;
65581;SDS011;52231;40.090;18.348;2022-07-23T05:41:06;14.43;;;6.38;;
65581;SDS011;52231;40.090;18.348;2022-07-23T05:43:35;12.48;;;7.35;;
65581;SDS011;52231;40.090;18.348;2022-07-23T05:46:09;12.82;;;6.63;;
65581;SDS011;52231;40.090;18.348;2022-07-23T05:48:41;11.35;;;6.50;;
65581;SDS011;52231;40.090;18.348;2022-07-23T05:51:28;13.40;;;6.72;;
65581;SDS011;52231;40.090;18.348;2022-07-23T05:53:58;16.38;;;6.88;;
65581;SDS011;52231;40.090;18.348;2022-07-23T05:56:32;11.88;;;5.82;;
65581;SDS011;52231;40.090;18.348;2022-07-23T05:59:00;9.73;;;4.90;;
65581;SDS011;52231;40.090;18.348;2022-07-23T06:01:30;12.90;;;4.93;;
65581;SDS011;52231;40.090;18.348;2022-07-23T06:04:09;12.63;;;4.35;;
65581;SDS011;52231;40.090;18.348;2022-07-23T06:06:43;11.73;;;4.18;;
65581;SDS011;52231;40.090;18.348;2022-07-23T06:09:12;9.48;;;4.15;;
65581;SDS011;52231;40.090;18.348;2022-07-23T06:11:41;12.00;;;4.05;;
65581;SDS011;52231;40.090;18.348;2022-07-23T06:14:11;10.57;;;4.13;;
65581;SDS011;52231;40.090;18.348;2022-07-23T06:16:55;11.63;;;4.47;;
65581;SDS011;52231;40.090;18.348;2022-07-23T06:19:41;9.73;;;4.03;;
65581;SDS011;52231;40.090;18.348;2022-07-23T06:22:10;10.32;;;4.30;;
65581;SDS011;52231;40.090;18.348;2022-07-23T06:24:38;12.15;;;4.05;;
65581;SDS011;52231;40.090;18.348;2022-07-23T06:27:06;11.07;;;4.43;;
65581;SDS011;52231;40.090;18.348;2022-07-23T06:29:35;15.82;;;3.97;;
65581;SDS011;52231;40.090;18.348;2022-07-23T06:32:03;6.65;;;3.13;;
65581;SDS011;52231;40.090;18.348;2022-07-23T06:34:31;6.28;;;3.08;;
65581;SDS011;52231;40.090;18.348;2022-07-23T06:37:00;7.90;;;2.90;;
65581;SDS011;52231;40.090;18.348;2022-07-23T06:39:28;9.73;;;3.05;;
65581;SDS011;52231;40.090;18.348;2022-07-23T06:41:58;6.35;;;3.13;;
65581;SDS011;52231;40.090;18.348;2022-07-23T06:44:45;5.93;;;2.70;;
65581;SDS011;52231;40.090;18.348;2022-07-23T06:47:16;8.05;;;2.90;;
65581;SDS011;52231;40.090;18.348;2022-07-23T06:49:44;6.35;;;3.30;;
65581;SDS011;52231;40.090;18.348;2022-07-23T06:52:14;6.45;;;2.92;;
65581;SDS011;52231;40.090;18.348;2022-07-23T06:54:43;6.93;;;3.30;;
65581;SDS011;52231;40.090;18.348;2022-07-23T06:57:11;7.63;;;3.08;;
65581;SDS011;52231;40.090;18.348;2022-07-23T06:59:39;7.57;;;3.08;;
65581;SDS011;52231;40.090;18.348;2022-07-23T07:02:09;6.90;;;2.80;;
65581;SDS011;52231;40.090;18.348;2022-07-23T07:04:38;5.38;;;2.80;;
65581;SDS011;52231;40.090;18.348;2022-07-23T07:07:07;6.13;;;3.15;;
65581;SDS011;52231;40.090;18.348;2022-07-23T07:09:35;5.03;;;2.80;;
65581;SDS011;52231;40.090;18.348;2022-07-23T07:12:04;4.72;;;2.88;;
65581;SDS011;52231;40.090;18.348;2022-07-23T07:14:32;7.13;;;3.08;;
65581;SDS011;52231;40.090;18.348;2022-07-23T07:17:01;6.13;;;2.97;;
65581;SDS011;52231;40.090;18.348;2022-07-23T07:19:29;6.47;;;3.03;;
65581;SDS011;52231;40.090;18.348;2022-07-23T07:21:58;8.60;;;3.25;;
65581;SDS011;52231;40.090;18.348;2022-07-23T07:24:27;7.40;;;3.20;;
65581;SDS011;52231;40.090;18.348;2022-07-23T07:26:58;7.63;;;3.40;;
65581;SDS011;52231;40.090;18.348;2022-07-23T07:29:26;7.32;;;3.13;;
65581;SDS011;52231;40.090;18.348;2022-07-23T07:31:55;6.40;;;3.00;;
65581;SDS011;52231;40.090;18.348;2022-07-23T07:34:23;7.57;;;3.22;;
65581;SDS011;52231;40.090;18.348;2022-07-23T07:36:52;7.75;;;3.15;;
65581;SDS011;52231;40.090;18.348;2022-07-23T07:39:20;6.38;;;2.83;;
65581;SDS011;52231;40.090;18.348;2022-07-23T07:41:49;7.90;;;3.22;;
65581;SDS011;52231;40.090;18.348;2022-07-23T07:44:17;5.55;;;2.63;;
65581;SDS011;52231;40.090;18.348;2022-07-23T07:46:45;5.07;;;2.78;;
65581;SDS011;52231;40.090;18.348;2022-07-23T07:49:14;6.57;;;2.60;;
65581;SDS011;52231;40.090;18.348;2022-07-23T07:51:45;5.38;;;2.97;;
65581;SDS011;52231;40.090;18.348;2022-07-23T07:54:13;6.25;;;3.10;;
65581;SDS011;52231;40.090;18.348;2022-07-23T07:56:42;4.82;;;2.60;;
65581;SDS011;52231;40.090;18.348;2022-07-23T07:59:10;6.07;;;2.70;;
65581;SDS011;52231;40.090;18.348;2022-07-23T08:01:39;8.65;;;2.90;;
65581;SDS011;52231;40.090;18.348;2022-07-23T08:04:07;5.68;;;2.50;;
65581;SDS011;52231;40.090;18.348;2022-07-23T08:06:36;11.48;;;3.28;;
65581;SDS011;52231;40.090;18.348;2022-07-23T08:09:05;8.23;;;3.00;;
65581;SDS011;52231;40.090;18.348;2022-07-23T08:11:34;5.78;;;2.65;;
65581;SDS011;52231;40.090;18.348;2022-07-23T08:14:02;8.52;;;3.67;;
65581;SDS011;52231;40.090;18.348;2022-07-23T08:16:31;5.63;;;2.50;;
65581;SDS011;52231;40.090;18.348;2022-07-23T08:19:07;5.45;;;2.70;;
65581;SDS011;52231;40.090;18.348;2022-07-23T08:21:35;8.27;;;3.22;;
65581;SDS011;52231;40.090;18.348;2022-07-23T08:24:03;5.78;;;2.90;;
65581;SDS011;52231;40.090;18.348;2022-07-23T08:26:31;5.60;;;2.65;;
65581;SDS011;52231;40.090;18.348;2022-07-23T08:28:59;5.82;;;2.83;;
65581;SDS011;52231;40.090;18.348;2022-07-23T08:31:28;9.00;;;3.00;;
65581;SDS011;52231;40.090;18.348;2022-07-23T08:33:56;10.27;;;3.45;;
65581;SDS011;52231;40.090;18.348;2022-07-23T08:36:25;5.75;;;2.47;;
65581;SDS011;52231;40.090;18.348;2022-07-23T08:38:59;5.13;;;2.47;;
65581;SDS011;52231;40.090;18.348;2022-07-23T08:41:29;5.68;;;2.50;;
65581;SDS011;52231;40.090;18.348;2022-07-23T08:43:58;3.20;;;2.25;;
65581;SDS011;52231;40.090;18.348;2022-07-23T08:46:28;4.88;;;2.40;;
65581;SDS011;52231;40.090;18.348;2022-07-23T08:48:57;7.05;;;2.60;;
65581;SDS011;52231;40.090;18.348;2022-07-23T08:51:26;4.40;;;2.30;;
65581;SDS011;52231;40.090;18.348;2022-07-23T08:54:00;6.80;;;2.75;;
65581;SDS011;52231;40.090;18.348;2022-07-23T08:56:28;5.97;;;2.72;;
65581;SDS011;52231;40.090;18.348;2022-07-23T08:58:57;4.88;;;2.47;;
65581;SDS011;52231;40.090;18.348;2022-07-23T09:01:25;7.43;;;3.00;;
65581;SDS011;52231;40.090;18.348;2022-07-23T09:03:54;5.55;;;2.58;;
65581;SDS011;52231;40.090;18.348;2022-07-23T09:06:22;7.68;;;2.53;;
65581;SDS011;52231;40.090;18.348;2022-07-23T09:08:51;7.05;;;2.70;;
65581;SDS011;52231;40.090;18.348;2022-07-23T09:11:19;6.85;;;2.80;;
65581;SDS011;52231;40.090;18.348;2022-07-23T09:13:48;8.02;;;2.88;;
65581;SDS011;52231;40.090;18.348;2022-07-23T09:16:18;4.68;;;2.63;;
65581;SDS011;52231;40.090;18.348;2022-07-23T09:18:47;4.40;;;2.40;;
65581;SDS011;52231;40.090;18.348;2022-07-23T09:21:21;5.45;;;2.60;;
65581;SDS011;52231;40.090;18.348;2022-07-23T09:26:27;4.40;;;2.60;;
65581;SDS011;52231;40.090;18.348;2022-07-23T09:29:03;4.65;;;2.65;;
65581;SDS011;52231;40.090;18.348;2022-07-23T09:31:33;4.90;;;2.65;;
65581;SDS011;52231;40.090;18.348;2022-07-23T09:34:23;6.38;;;2.72;;
65581;SDS011;52231;40.090;18.348;2022-07-23T09:36:57;6.13;;;3.05;;
65581;SDS011;52231;40.090;18.348;2022-07-23T09:39:41;5.47;;;2.72;;
65581;SDS011;52231;40.090;18.348;2022-07-23T09:42:17;6.15;;;2.67;;
65581;SDS011;52231;40.090;18.348;2022-07-23T09:44:56;5.32;;;2.40;;
65581;SDS011;52231;40.090;18.348;2022-07-23T09:47:27;6.57;;;2.67;;
65581;SDS011;52231;40.090;18.348;2022-07-23T09:49:58;6.38;;;2.60;;
65581;SDS011;52231;40.090;18.348;2022-07-23T09:52:42;5.10;;;2.80;;
65581;SDS011;52231;40.090;18.348;2022-07-23T09:55:12;5.72;;;2.85;;
65581;SDS011;52231;40.090;18.348;2022-07-23T09:57:41;7.05;;;2.78;;
65581;SDS011;52231;40.090;18.348;2022-07-23T10:00:12;6.55;;;3.00;;
65581;SDS011;52231;40.090;18.348;2022-07-23T10:02:41;6.68;;;2.70;;
65581;SDS011;52231;40.090;18.348;2022-07-23T10:05:28;7.28;;;2.80;;
65581;SDS011;52231;40.090;18.348;2022-07-23T10:08:19;6.82;;;3.00;;
65581;SDS011;52231;40.090;18.348;2022-07-23T10:11:09;5.03;;;2.63;;
65581;SDS011;52231;40.090;18.348;2022-07-23T10:14:05;6.70;;;2.60;;
65581;SDS011;52231;40.090;18.348;2022-07-23T10:16:56;5.22;;;2.63;;
65581;SDS011;52231;40.090;18.348;2022-07-23T10:19:24;5.45;;;2.58;;
65581;SDS011;52231;40.090;18.348;2022-07-23T10:21:54;6.22;;;2.42;;
65581;SDS011;52231;40.090;18.348;2022-07-23T10:27:39;5.95;;;2.75;;
65581;SDS011;52231;40.090;18.348;2022-07-23T10:33:14;4.90;;;2.50;;
65581;SDS011;52231;40.090;18.348;2022-07-23T10:36:04;4.88;;;2.42;;
65581;SDS011;52231;40.090;18.348;2022-07-23T10:41:33;4.82;;;2.50;;
65581;SDS011;52231;40.090;18.348;2022-07-23T10:44:09;4.03;;;2.45;;
65581;SDS011;52231;40.090;18.348;2022-07-23T10:46:53;5.03;;;2.45;;
65581;SDS011;52231;40.090;18.348;2022-07-23T10:49:27;6.28;;;2.78;;
65581;SDS011;52231;40.090;18.348;2022-07-23T10:54:44;5.82;;;2.90;;
65581;SDS011;52231;40.090;18.348;2022-07-23T10:57:22;14.75;;;10.25;;
65581;SDS011;52231;40.090;18.348;2022-07-23T11:02:40;11.82;;;7.50;;
65581;SDS011;52231;40.090;18.348;2022-07-23T11:05:10;8.70;;;4.65;;
65581;SDS011;52231;40.090;18.348;2022-07-23T11:13:32;6.15;;;3.20;;
65581;SDS011;52231;40.090;18.348;2022-07-23T11:26:40;7.15;;;3.08;;
65581;SDS011;52231;40.090;18.348;2022-07-23T11:31:54;5.22;;;2.40;;
65581;SDS011;52231;40.090;18.348;2022-07-23T11:34:40;6.68;;;2.70;;
65581;SDS011;52231;40.090;18.348;2022-07-23T11:37:11;6.53;;;2.53;;
65581;SDS011;52231;40.090;18.348;2022-07-23T11:39:56;5.57;;;2.50;;
65581;SDS011;52231;40.090;18.348;2022-07-23T11:42:27;5.05;;;2.78;;
65581;SDS011;52231;40.090;18.348;2022-07-23T11:44:57;7.63;;;2.83;;
65581;SDS011;52231;40.090;18.348;2022-07-23T11:47:28;7.07;;;2.72;;
65581;SDS011;52231;40.090;18.348;2022-07-23T11:49:59;6.07;;;2.88;;
65581;SDS011;52231;40.090;18.348;2022-07-23T11:52:30;6.82;;;2.83;;
65581;SDS011;52231;40.090;18.348;2022-07-23T11:55:00;4.97;;;2.65;;
65581;SDS011;52231;40.090;18.348;2022-07-23T11:57:33;7.55;;;2.97;;
65581;SDS011;52231;40.090;18.348;2022-07-23T12:02:47;3.95;;;2.63;;
65581;SDS011;52231;40.090;18.348;2022-07-23T12:07:47;5.05;;;2.60;;
65581;SDS011;52231;40.090;18.348;2022-07-23T12:10:21;4.82;;;2.53;;
65581;SDS011;52231;40.090;18.348;2022-07-23T12:12:58;4.90;;;2.50;;
65581;SDS011;52231;40.090;18.348;2022-07-23T12:18:08;5.15;;;2.65;;
65581;SDS011;52231;40.090;18.348;2022-07-23T12:20:39;4.55;;;2.70;;
65581;SDS011;52231;40.090;18.348;2022-07-23T12:23:11;5.72;;;2.92;;
65581;SDS011;52231;40.090;18.348;2022-07-23T12:25:42;6.65;;;2.85;;
65581;SDS011;52231;40.090;18.348;2022-07-23T12:30:49;4.38;;;2.30;;
65581;SDS011;52231;40.090;18.348;2022-07-23T12:35:59;5.40;;;2.45;;
65581;SDS011;52231;40.090;18.348;2022-07-23T12:38:41;5.03;;;2.58;;
65581;SDS011;52231;40.090;18.348;2022-07-23T12:41:14;6.63;;;2.50;;
65581;SDS011;52231;40.090;18.348;2022-07-23T12:43:43;4.38;;;2.63;;
65581;SDS011;52231;40.090;18.348;2022-07-23T12:46:17;3.80;;;2.30;;
65581;SDS011;52231;40.090;18.348;2022-07-23T12:51:22;6.18;;;2.70;;
65581;SDS011;52231;40.090;18.348;2022-07-23T12:53:53;3.78;;;2.38;;
65581;SDS011;52231;40.090;18.348;2022-07-23T12:56:44;3.90;;;2.35;;
65581;SDS011;52231;40.090;18.348;2022-07-23T12:59:14;4.60;;;2.47;;
65581;SDS011;52231;40.090;18.348;2022-07-23T13:01:55;5.47;;;2.40;;
65581;SDS011;52231;40.090;18.348;2022-07-23T13:04:26;4.05;;;2.20;;
65581;SDS011;52231;40.090;18.348;2022-07-23T13:06:58;4.75;;;2.70;;
65581;SDS011;52231;40.090;18.348;2022-07-23T13:09:31;4.30;;;2.13;;
65581;SDS011;52231;40.090;18.348;2022-07-23T13:12:03;5.00;;;2.25;;
65581;SDS011;52231;40.090;18.348;2022-07-23T13:14:32;4.22;;;2.30;;
65581;SDS011;52231;40.090;18.348;2022-07-23T13:17:00;3.70;;;2.35;;
65581;SDS011;52231;40.090;18.348;2022-07-23T13:19:28;4.47;;;2.38;;
65581;SDS011;52231;40.090;18.348;2022-07-23T13:21:56;3.33;;;2.33;;
65581;SDS011;52231;40.090;18.348;2022-07-23T13:24:25;4.65;;;2.47;;
65581;SDS011;52231;40.090;18.348;2022-07-23T13:26:53;4.22;;;2.25;;
65581;SDS011;52231;40.090;18.348;2022-07-23T13:29:22;4.43;;;2.55;;
65581;SDS011;52231;40.090;18.348;2022-07-23T13:31:51;4.07;;;2.22;;
65581;SDS011;52231;40.090;18.348;2022-07-23T13:34:19;5.00;;;2.70;;
65581;SDS011;52231;40.090;18.348;2022-07-23T13:36:48;5.35;;;2.28;;
65581;SDS011;52231;40.090;18.348;2022-07-23T13:39:16;4.22;;;2.58;;
65581;SDS011;52231;40.090;18.348;2022-07-23T13:41:44;3.70;;;2.50;;
65581;SDS011;52231;40.090;18.348;2022-07-23T13:44:13;5.97;;;2.80;;
65581;SDS011;52231;40.090;18.348;2022-07-23T13:46:41;5.25;;;3.10;;
65581;SDS011;52231;40.090;18.348;2022-07-23T13:49:09;6.68;;;2.70;;
65581;SDS011;52231;40.090;18.348;2022-07-23T13:51:37;4.90;;;2.80;;
65581;SDS011;52231;40.090;18.348;2022-07-23T13:54:05;5.35;;;2.80;;
65581;SDS011;52231;40.090;18.348;2022-07-23T13:56:34;4.65;;;2.80;;
65581;SDS011;52231;40.090;18.348;2022-07-23T13:59:03;6.75;;;3.55;;
65581;SDS011;52231;40.090;18.348;2022-07-23T14:01:32;6.95;;;3.42;;
65581;SDS011;52231;40.090;18.348;2022-07-23T14:04:00;5.75;;;3.53;;
65581;SDS011;52231;40.090;18.348;2022-07-23T14:06:29;5.50;;;3.25;;
65581;SDS011;52231;40.090;18.348;2022-07-23T18:35:22;8.43;;;4.03;;
65581;SDS011;52231;40.090;18.348;2022-07-23T18:37:51;7.40;;;3.50;;
65581;SDS011;52231;40.090;18.348;2022-07-23T18:40:20;7.35;;;3.58;;
65581;SDS011;52231;40.090;18.348;2022-07-23T18:42:48;7.82;;;3.50;;
65581;SDS011;52231;40.090;18.348;2022-07-23T18:45:17;7.03;;;3.55;;
65581;SDS011;52231;40.090;18.348;2022-07-23T18:47:46;7.88;;;4.07;;
65581;SDS011;52231;40.090;18.348;2022-07-23T18:50:14;8.65;;;4.53;;
65581;SDS011;52231;40.090;18.348;2022-07-23T18:52:42;10.65;;;4.53;;
65581;SDS011;52231;40.090;18.348;2022-07-23T18:55:11;9.85;;;4.57;;
65581;SDS011;52231;40.090;18.348;2022-07-23T18:57:39;8.70;;;4.50;;
65581;SDS011;52231;40.090;18.348;2022-07-23T19:00:08;8.65;;;4.28;;
65581;SDS011;52231;40.090;18.348;2022-07-23T19:02:38;6.97;;;3.88;;
65581;SDS011;52231;40.090;18.348;2022-07-23T19:05:07;8.77;;;4.20;;
65581;SDS011;52231;40.090;18.348;2022-07-23T19:07:36;7.72;;;3.92;;
65581;SDS011;52231;40.090;18.348;2022-07-23T19:10:05;9.88;;;3.83;;
65581;SDS011;52231;40.090;18.348;2022-07-23T19:12:34;10.95;;;3.88;;
65581;SDS011;52231;40.090;18.348;2022-07-23T19:15:03;7.45;;;3.60;;
65581;SDS011;52231;40.090;18.348;2022-07-23T19:17:33;9.13;;;4.25;;
65581;SDS011;52231;40.090;18.348;2022-07-23T19:20:03;7.47;;;4.32;;
65581;SDS011;52231;40.090;18.348;2022-07-23T19:22:34;6.68;;;3.28;;
65581;SDS011;52231;40.090;18.348;2022-07-23T19:25:03;7.50;;;3.65;;
65581;SDS011;52231;40.090;18.348;2022-07-23T19:27:34;9.85;;;3.80;;
65581;SDS011;52231;40.090;18.348;2022-07-23T19:30:08;10.77;;;3.83;;
65581;SDS011;52231;40.090;18.348;2022-07-23T20:11:00;15.27;;;11.88;;
65581;SDS011;52231;40.090;18.348;2022-07-23T20:13:30;14.82;;;10.65;;
65581;SDS011;52231;40.090;18.348;2022-07-23T20:15:59;22.92;;;14.75;;
65581;SDS011;52231;40.090;18.348;2022-07-23T20:18:27;11.10;;;7.13;;
65581;SDS011;52231;40.090;18.348;2022-07-23T20:20:56;8.85;;;4.38;;
65581;SDS011;52231;40.090;18.348;2022-07-23T20:23:25;12.38;;;5.55;;
65581;SDS011;52231;40.090;18.348;2022-07-23T20:25:56;13.00;;;7.80;;
65581;SDS011;52231;40.090;18.348;2022-07-23T20:28:24;15.00;;;8.60;;
65581;SDS011;52231;40.090;18.348;2022-07-23T20:30:53;16.67;;;8.48;;
65581;SDS011;52231;40.090;18.348;2022-07-23T20:33:22;14.80;;;8.70;;
65581;SDS011;52231;40.090;18.348;2022-07-23T20:35:51;24.67;;;12.38;;
65581;SDS011;52231;40.090;18.348;2022-07-23T20:38:19;41.50;;;24.92;;
65581;SDS011;52231;40.090;18.348;2022-07-23T20:40:47;27.48;;;16.00;;
65581;SDS011;52231;40.090;18.348;2022-07-23T20:43:17;26.15;;;14.95;;
65581;SDS011;52231;40.090;18.348;2022-07-23T20:45:48;24.05;;;14.77;;
65581;SDS011;52231;40.090;18.348;2022-07-23T20:48:17;18.38;;;9.98;;
65581;SDS011;52231;40.090;18.348;2022-07-23T20:50:46;13.50;;;8.35;;
65581;SDS011;52231;40.090;18.348;2022-07-23T20:53:16;12.70;;;6.47;;
65581;SDS011;52231;40.090;18.348;2022-07-23T20:55:44;12.48;;;6.30;;
65581;SDS011;52231;40.090;18.348;2022-07-23T20:58:12;11.68;;;6.13;;
65581;SDS011;52231;40.090;18.348;2022-07-23T21:00:41;10.40;;;5.93;;
65581;SDS011;52231;40.090;18.348;2022-07-23T21:03:10;11.60;;;5.30;;
65581;SDS011;52231;40.090;18.348;2022-07-23T21:05:41;11.68;;;5.55;;
65581;SDS011;52231;40.090;18.348;2022-07-23T21:08:09;10.52;;;5.57;;
65581;SDS011;52231;40.090;18.348;2022-07-23T21:10:38;10.40;;;5.53;;
65581;SDS011;52231;40.090;18.348;2022-07-23T21:13:07;15.13;;;6.03;;
65581;SDS011;52231;40.090;18.348;2022-07-23T21:15:37;13.90;;;5.70;;
65581;SDS011;52231;40.090;18.348;2022-07-23T21:18:05;10.65;;;5.57;;
65581;SDS011;52231;40.090;18.348;2022-07-23T21:20:34;12.73;;;5.18;;
65581;SDS011;52231;40.090;18.348;2022-07-23T21:23:23;9.88;;;5.13;;